Terminal Aerodrome Forecast
Issued by NWS

Home | Current Version | Previous Version | Graphics & Text | Print | Product List | Glossary On
Versions: 1 2 3 4 5 6 7 8 9 10 11 12 13 14 15 16
000
FTUS42 KMHX 290540
TAFOAJ
TAF
KOAJ 290540Z 2906/3006 20006KT P6SM SCT007 OVC010
      TEMPO 2906/2908 BKN007
     FM290800 20007KT P6SM OVC007
     FM291200 21008KT P6SM BKN010
     FM291500 21010G18KT P6SM SCT015
     FM300000 18007KT P6SM FEW250
      AMD LTD TO CLD VIS AND WIND=

USA.gov is the U.S. government's official web portal to all federal, state and local government web resources and services.